< Typhoon 199223 1992 Season Typhoon 199225 >
Typhoon 199224 (ANGELA)
General InformationTrack Information on Google MapsDetailed Wind InformationList of All Images || Disaster Info.ResourceGoogle EarthGE AnimationAtom FeedGeoJSON
Detalied Best Track (Time Zone = UTC)
Year Month Day Hour Lat. Long. Pressure (hPa) Wind (kt) Class Image Chart
1992 10 15 00 11.0 117.0 1004 0 2 Image Chart
1992 10 15 06 12.0 118.0 1004 0 2 Image Chart
1992 10 15 12 13.0 118.5 1004 0 2 Image Chart
1992 10 15 18 13.5 118.5 1002 0 2 Image Chart
1992 10 16 00 14.0 118.5 1002 0 2 Image Chart
1992 10 16 06 14.5 118.5 1000 0 2 Image Chart
1992 10 16 12 15.0 117.9 1000 0 2 Image Chart
1992 10 16 18 15.0 117.5 1000 0 2 Image Chart
1992 10 17 00 14.5 117.5 1000 0 2 Image Chart
1992 10 17 06 14.0 117.4 996 35 3 Image Chart
1992 10 17 12 13.6 117.1 992 40 3 Image Chart
1992 10 17 18 13.3 116.7 985 50 4 Image Chart
1992 10 18 00 13.0 116.3 980 55 4 Image Chart
1992 10 18 06 12.8 115.9 975 60 4 Image Chart
1992 10 18 12 12.6 115.4 975 60 4 Image Chart
1992 10 18 18 12.5 114.9 970 65 5 Image Chart
1992 10 19 00 12.3 114.4 970 65 5 Image Chart
1992 10 19 06 12.1 113.9 970 65 5 Image Chart
1992 10 19 12 12.2 113.4 970 65 5 Image Chart
1992 10 19 18 12.5 113.0 970 65 5 Image Chart
1992 10 20 00 12.7 112.6 970 65 5 Image Chart
1992 10 20 06 12.7 112.4 970 65 5 Image Chart
1992 10 20 12 12.5 112.3 970 65 5 Image Chart
1992 10 20 18 12.5 112.5 970 65 5 Image Chart
1992 10 21 00 12.8 112.5 975 60 4 Image Chart
1992 10 21 06 13.2 112.4 975 60 4 Image Chart
1992 10 21 12 13.4 112.2 980 60 4 Image Chart
1992 10 21 18 13.5 112.0 980 60 4 Image Chart
1992 10 22 00 13.6 111.8 985 55 4 Image Chart
1992 10 22 06 13.6 111.6 985 55 4 Image Chart
1992 10 22 12 13.5 111.2 985 55 4 Image Chart
1992 10 22 18 13.4 110.6 985 55 4 Image Chart
1992 10 23 00 13.3 110.0 990 45 3 Image Chart
1992 10 23 06 13.3 109.4 992 45 3 Image Chart
1992 10 23 12 13.3 108.7 994 40 3 Image Chart
1992 10 23 18 13.2 107.9 996 35 3 Image Chart
1992 10 24 00 13.1 107.1 1000 0 2 Image Chart
1992 10 24 06 12.8 106.6 1004 0 2 Image Chart
1992 10 24 12 12.4 106.2 1006 0 2 Image Chart
1992 10 24 18 11.9 106.0 1006 0 2 Image Chart
1992 10 25 00 11.1 105.9 1006 0 2 Image Chart
1992 10 25 06 10.6 105.8 1006 0 2 Image Chart
1992 10 25 12 10.0 105.7 1006 0 2 Image Chart
1992 10 25 18 9.5 105.5 1006 0 2 Image Chart
1992 10 26 00 9.0 105.0 1006 0 2 Image Chart
1992 10 26 06 8.7 104.7 1006 0 2 Image Chart
1992 10 26 12 8.3 104.2 1006 0 2 Image Chart
1992 10 26 18 8.1 103.7 1004 0 2 Image Chart
1992 10 27 00 8.1 103.2 1004 0 2 Image Chart
1992 10 27 06 8.2 102.8 1002 0 2 Image Chart
1992 10 27 12 8.3 102.5 1000 0 2 Image Chart
1992 10 27 18 8.4 102.4 998 35 3 Image Chart
1992 10 28 00 8.5 102.3 998 35 3 Image Chart
1992 10 28 06 8.6 102.3 996 35 3 Image Chart
1992 10 28 12 8.8 102.5 996 35 3 Image Chart
1992 10 28 18 8.9 103.1 996 35 3 Image Chart
1992 10 29 00 8.9 103.7 998 35 3 Image Chart
1992 10 29 06 9.0 104.0 1002 0 2 Image Chart
1992 10 29 12 9.2 104.2 1006 0 2 Image Chart
1992 10 29 18 9.4 104.2 1008 0 2 Image Chart
1992 10 30 00 9.5 104.1 1008 0 2 Image Chart
1992 10 30 06 9.6 103.8 1008 0 2 Image Chart
1992 10 30 12 9.6 103.5 1008 0 2 Image Chart
Japan Meteorological Agency Best Track Data | Correction Date : 1992-12-25
< Typhoon 199223 1992 Season Typhoon 199225 >

Help